sensor_id;sensor_type;location;lat;lon;timestamp;pressure;altitude;pressure_sealevel;temperature;humidity
64967;BME280;51710;38.732;-121.358;2023-01-24T00:00:35;101515.25;;;16.18;37.01
64967;BME280;51710;38.732;-121.358;2023-01-24T00:03:01;101511.53;;;16.19;36.90
64967;BME280;51710;38.732;-121.358;2023-01-24T00:05:28;101513.38;;;16.18;37.11
64967;BME280;51710;38.732;-121.358;2023-01-24T00:07:55;101508.84;;;16.19;36.85
64967;BME280;51710;38.732;-121.358;2023-01-24T00:10:21;101512.41;;;16.11;37.23
64967;BME280;51710;38.732;-121.358;2023-01-24T00:12:50;101502.19;;;16.07;36.65
64967;BME280;51710;38.732;-121.358;2023-01-24T00:15:16;101503.53;;;16.03;37.04
64967;BME280;51710;38.732;-121.358;2023-01-24T00:17:43;101510.44;;;15.97;36.87
64967;BME280;51710;38.732;-121.358;2023-01-24T00:20:10;101505.59;;;15.93;37.00
64967;BME280;51710;38.732;-121.358;2023-01-24T00:22:36;101507.13;;;15.87;36.62
64967;BME280;51710;38.732;-121.358;2023-01-24T00:25:03;101506.31;;;15.78;37.30
64967;BME280;51710;38.732;-121.358;2023-01-24T00:27:29;101499.94;;;15.71;37.15
64967;BME280;51710;38.732;-121.358;2023-01-24T00:29:57;101501.94;;;15.69;37.37
64967;BME280;51710;38.732;-121.358;2023-01-24T00:32:23;101500.63;;;15.65;37.41
64967;BME280;51710;38.732;-121.358;2023-01-24T00:34:50;101503.16;;;15.59;37.31
64967;BME280;51710;38.732;-121.358;2023-01-24T00:37:16;101507.34;;;15.53;37.10
64967;BME280;51710;38.732;-121.358;2023-01-24T00:39:42;101497.66;;;15.44;37.72
64967;BME280;51710;38.732;-121.358;2023-01-24T00:42:09;101508.50;;;15.35;37.52
64967;BME280;51710;38.732;-121.358;2023-01-24T00:44:35;101498.63;;;15.27;37.50
64967;BME280;51710;38.732;-121.358;2023-01-24T00:47:01;101499.31;;;15.21;37.51
64967;BME280;51710;38.732;-121.358;2023-01-24T00:49:28;101510.00;;;15.13;38.01
64967;BME280;51710;38.732;-121.358;2023-01-24T00:51:55;101502.81;;;15.06;37.89
64967;BME280;51710;38.732;-121.358;2023-01-24T00:54:21;101511.34;;;15.01;38.04
64967;BME280;51710;38.732;-121.358;2023-01-24T00:56:47;101510.34;;;14.94;38.47
64967;BME280;51710;38.732;-121.358;2023-01-24T00:59:14;101515.72;;;14.86;38.74
64967;BME280;51710;38.732;-121.358;2023-01-24T01:01:40;101518.38;;;14.78;38.91
64967;BME280;51710;38.732;-121.358;2023-01-24T01:04:07;101523.72;;;14.70;39.39
64967;BME280;51710;38.732;-121.358;2023-01-24T01:06:33;101526.38;;;14.62;39.78
64967;BME280;51710;38.732;-121.358;2023-01-24T01:09:00;101518.63;;;14.51;39.97
64967;BME280;51710;38.732;-121.358;2023-01-24T01:11:26;101527.00;;;14.40;40.24
64967;BME280;51710;38.732;-121.358;2023-01-24T01:13:56;101523.19;;;14.25;40.66
64967;BME280;51710;38.732;-121.358;2023-01-24T01:16:23;101532.84;;;14.10;40.89
64967;BME280;51710;38.732;-121.358;2023-01-24T01:18:53;101529.75;;;13.97;41.14
64967;BME280;51710;38.732;-121.358;2023-01-24T01:21:21;101542.25;;;13.88;41.01
64967;BME280;51710;38.732;-121.358;2023-01-24T01:23:48;101543.72;;;13.83;41.09
64967;BME280;51710;38.732;-121.358;2023-01-24T01:26:18;101544.38;;;13.77;41.11
64967;BME280;51710;38.732;-121.358;2023-01-24T01:28:45;101542.47;;;13.69;41.31
64967;BME280;51710;38.732;-121.358;2023-01-24T01:31:11;101541.25;;;13.64;41.43
64967;BME280;51710;38.732;-121.358;2023-01-24T01:33:38;101548.75;;;13.60;41.31
64967;BME280;51710;38.732;-121.358;2023-01-24T01:36:04;101543.88;;;13.55;41.64
64967;BME280;51710;38.732;-121.358;2023-01-24T01:38:34;101548.88;;;13.50;42.08
64967;BME280;51710;38.732;-121.358;2023-01-24T01:41:01;101551.19;;;13.45;41.80
64967;BME280;51710;38.732;-121.358;2023-01-24T01:43:29;101559.50;;;13.42;42.11
64967;BME280;51710;38.732;-121.358;2023-01-24T01:46:36;101556.28;;;13.39;42.28
64967;BME280;51710;38.732;-121.358;2023-01-24T01:48:57;101572.13;;;13.32;42.66
64967;BME280;51710;38.732;-121.358;2023-01-24T01:54:00;101575.34;;;13.18;42.97
64967;BME280;51710;38.732;-121.358;2023-01-24T01:56:50;101580.63;;;13.10;43.19
64967;BME280;51710;38.732;-121.358;2023-01-24T01:59:39;101585.06;;;13.02;43.28
64967;BME280;51710;38.732;-121.358;2023-01-24T02:02:10;101586.94;;;12.92;44.03
64967;BME280;51710;38.732;-121.358;2023-01-24T02:04:41;101592.16;;;12.84;44.44
64967;BME280;51710;38.732;-121.358;2023-01-24T02:07:28;101589.69;;;12.73;44.80
64967;BME280;51710;38.732;-121.358;2023-01-24T02:09:56;101588.63;;;12.66;44.77
64967;BME280;51710;38.732;-121.358;2023-01-24T02:12:33;101600.75;;;12.60;44.83
64967;BME280;51710;38.732;-121.358;2023-01-24T02:15:11;101609.19;;;12.56;45.19
64967;BME280;51710;38.732;-121.358;2023-01-24T02:17:56;101615.97;;;12.50;44.92
64967;BME280;51710;38.732;-121.358;2023-01-24T02:20:43;101627.00;;;12.37;45.27
64967;BME280;51710;38.732;-121.358;2023-01-24T02:23:33;101628.03;;;12.27;44.97
64967;BME280;51710;38.732;-121.358;2023-01-24T02:28:34;101632.00;;;12.13;45.53
64967;BME280;51710;38.732;-121.358;2023-01-24T02:31:02;101639.88;;;12.05;45.75
64967;BME280;51710;38.732;-121.358;2023-01-24T02:33:30;101636.25;;;11.97;45.57
64967;BME280;51710;38.732;-121.358;2023-01-24T02:38:54;101640.22;;;11.74;46.90
64967;BME280;51710;38.732;-121.358;2023-01-24T02:41:26;101624.63;;;11.60;46.80
64967;BME280;51710;38.732;-121.358;2023-01-24T02:43:58;101633.19;;;11.54;47.42
64967;BME280;51710;38.732;-121.358;2023-01-24T02:46:29;101618.16;;;11.33;47.58
64967;BME280;51710;38.732;-121.358;2023-01-24T02:48:58;101632.19;;;11.07;48.26
64967;BME280;51710;38.732;-121.358;2023-01-24T02:51:24;101650.19;;;10.75;48.76
64967;BME280;51710;38.732;-121.358;2023-01-24T02:54:09;101646.47;;;10.57;48.62
64967;BME280;51710;38.732;-121.358;2023-01-24T02:56:35;101647.59;;;10.54;49.22
64967;BME280;51710;38.732;-121.358;2023-01-24T02:59:20;101642.72;;;10.59;49.33
64967;BME280;51710;38.732;-121.358;2023-01-24T03:01:47;101655.75;;;10.62;49.06
64967;BME280;51710;38.732;-121.358;2023-01-24T03:04:13;101661.22;;;10.61;49.16
64967;BME280;51710;38.732;-121.358;2023-01-24T03:06:41;101664.03;;;10.59;49.39
64967;BME280;51710;38.732;-121.358;2023-01-24T03:09:08;101668.19;;;10.52;49.34
64967;BME280;51710;38.732;-121.358;2023-01-24T03:11:47;101661.84;;;10.44;49.61
64967;BME280;51710;38.732;-121.358;2023-01-24T03:14:14;101674.66;;;10.29;50.04
64967;BME280;51710;38.732;-121.358;2023-01-24T03:16:59;101685.13;;;10.21;50.34
64967;BME280;51710;38.732;-121.358;2023-01-24T03:19:43;101691.41;;;10.20;50.36
64967;BME280;51710;38.732;-121.358;2023-01-24T03:22:28;101698.56;;;10.19;50.10
64967;BME280;51710;38.732;-121.358;2023-01-24T03:25:13;101701.09;;;10.21;51.01
64967;BME280;51710;38.732;-121.358;2023-01-24T03:28:03;101713.44;;;10.22;51.41
64967;BME280;51710;38.732;-121.358;2023-01-24T03:30:47;101710.91;;;10.20;51.63
64967;BME280;51710;38.732;-121.358;2023-01-24T03:33:32;101724.59;;;10.16;51.88
64967;BME280;51710;38.732;-121.358;2023-01-24T03:36:16;101723.63;;;10.06;52.55
64967;BME280;51710;38.732;-121.358;2023-01-24T03:38:46;101725.53;;;9.94;53.18
64967;BME280;51710;38.732;-121.358;2023-01-24T03:41:30;101725.84;;;9.80;53.10
64967;BME280;51710;38.732;-121.358;2023-01-24T03:43:57;101732.03;;;9.70;54.08
64967;BME280;51710;38.732;-121.358;2023-01-24T03:46:23;101740.28;;;9.67;54.96
64967;BME280;51710;38.732;-121.358;2023-01-24T03:48:50;101735.69;;;9.69;55.24
64967;BME280;51710;38.732;-121.358;2023-01-24T03:51:16;101738.09;;;9.72;55.29
64967;BME280;51710;38.732;-121.358;2023-01-24T03:54:00;101741.19;;;9.77;55.07
64967;BME280;51710;38.732;-121.358;2023-01-24T03:56:27;101733.22;;;9.77;55.84
64967;BME280;51710;38.732;-121.358;2023-01-24T03:58:53;101744.00;;;9.75;56.48
64967;BME280;51710;38.732;-121.358;2023-01-24T04:01:20;101747.72;;;9.73;56.47
64967;BME280;51710;38.732;-121.358;2023-01-24T04:03:47;101751.38;;;9.72;56.77
64967;BME280;51710;38.732;-121.358;2023-01-24T04:06:13;101746.31;;;9.69;56.96
64967;BME280;51710;38.732;-121.358;2023-01-24T04:08:40;101750.91;;;9.67;56.99
64967;BME280;51710;38.732;-121.358;2023-01-24T04:11:06;101764.47;;;9.64;57.15
64967;BME280;51710;38.732;-121.358;2023-01-24T04:13:32;101771.72;;;9.62;57.38
64967;BME280;51710;38.732;-121.358;2023-01-24T04:15:59;101769.91;;;9.62;57.59
64967;BME280;51710;38.732;-121.358;2023-01-24T04:18:25;101761.34;;;9.59;57.31
64967;BME280;51710;38.732;-121.358;2023-01-24T04:20:52;101764.09;;;9.57;58.20
64967;BME280;51710;38.732;-121.358;2023-01-24T04:23:18;101768.72;;;9.55;58.14
64967;BME280;51710;38.732;-121.358;2023-01-24T04:25:49;101779.47;;;9.54;58.44
64967;BME280;51710;38.732;-121.358;2023-01-24T04:28:20;101783.09;;;9.53;58.31
64967;BME280;51710;38.732;-121.358;2023-01-24T04:30:47;101804.63;;;9.50;58.52
64967;BME280;51710;38.732;-121.358;2023-01-24T04:33:13;101809.34;;;9.46;58.40
64967;BME280;51710;38.732;-121.358;2023-01-24T04:35:40;101800.66;;;9.44;58.50
64967;BME280;51710;38.732;-121.358;2023-01-24T04:38:07;101803.44;;;9.43;58.75
64967;BME280;51710;38.732;-121.358;2023-01-24T04:40:33;101805.25;;;9.42;59.24
64967;BME280;51710;38.732;-121.358;2023-01-24T04:43:00;101808.28;;;9.38;59.12
64967;BME280;51710;38.732;-121.358;2023-01-24T04:45:26;101817.31;;;9.35;59.71
64967;BME280;51710;38.732;-121.358;2023-01-24T04:47:54;101823.75;;;9.33;59.49
64967;BME280;51710;38.732;-121.358;2023-01-24T04:50:20;101823.03;;;9.31;59.54
64967;BME280;51710;38.732;-121.358;2023-01-24T04:52:47;101822.28;;;9.29;59.85
64967;BME280;51710;38.732;-121.358;2023-01-24T04:55:13;101836.66;;;9.26;60.03
64967;BME280;51710;38.732;-121.358;2023-01-24T04:57:40;101832.19;;;9.27;59.76
64967;BME280;51710;38.732;-121.358;2023-01-24T05:00:07;101844.03;;;9.23;60.04
64967;BME280;51710;38.732;-121.358;2023-01-24T05:02:36;101849.59;;;9.20;60.32
64967;BME280;51710;38.732;-121.358;2023-01-24T05:05:06;101850.56;;;9.19;60.41
64967;BME280;51710;38.732;-121.358;2023-01-24T05:07:33;101852.25;;;9.20;60.34
64967;BME280;51710;38.732;-121.358;2023-01-24T05:09:59;101851.28;;;9.21;60.61
64967;BME280;51710;38.732;-121.358;2023-01-24T05:12:25;101844.53;;;9.17;60.58
64967;BME280;51710;38.732;-121.358;2023-01-24T05:14:52;101846.47;;;9.15;60.44
64967;BME280;51710;38.732;-121.358;2023-01-24T05:17:18;101847.78;;;9.09;60.80
64967;BME280;51710;38.732;-121.358;2023-01-24T05:19:45;101857.56;;;9.08;60.91
64967;BME280;51710;38.732;-121.358;2023-01-24T05:22:11;101860.56;;;9.04;60.73
64967;BME280;51710;38.732;-121.358;2023-01-24T05:24:37;101867.94;;;9.00;60.99
64967;BME280;51710;38.732;-121.358;2023-01-24T05:27:03;101871.56;;;8.99;60.90
64967;BME280;51710;38.732;-121.358;2023-01-24T05:29:30;101870.09;;;8.95;60.96
64967;BME280;51710;38.732;-121.358;2023-01-24T05:31:56;101881.69;;;8.94;61.13
64967;BME280;51710;38.732;-121.358;2023-01-24T05:34:22;101888.94;;;8.92;61.43
64967;BME280;51710;38.732;-121.358;2023-01-24T05:36:48;101887.13;;;8.82;61.46
64967;BME280;51710;38.732;-121.358;2023-01-24T05:39:15;101899.63;;;8.69;61.26
64967;BME280;51710;38.732;-121.358;2023-01-24T05:41:41;101905.75;;;8.58;61.58
64967;BME280;51710;38.732;-121.358;2023-01-24T05:44:07;101905.81;;;8.46;61.70
64967;BME280;51710;38.732;-121.358;2023-01-24T05:46:34;101904.19;;;8.32;62.38
64967;BME280;51710;38.732;-121.358;2023-01-24T05:49:00;101910.13;;;8.23;62.17
64967;BME280;51710;38.732;-121.358;2023-01-24T05:51:26;101918.56;;;8.17;62.27
64967;BME280;51710;38.732;-121.358;2023-01-24T05:53:53;101919.97;;;8.10;62.69
64967;BME280;51710;38.732;-121.358;2023-01-24T05:56:20;101933.66;;;8.04;63.26
64967;BME280;51710;38.732;-121.358;2023-01-24T05:58:47;101934.84;;;8.00;63.03
64967;BME280;51710;38.732;-121.358;2023-01-24T06:01:19;101941.44;;;7.94;62.97
64967;BME280;51710;38.732;-121.358;2023-01-24T06:03:48;101939.34;;;7.87;63.54
64967;BME280;51710;38.732;-121.358;2023-01-24T06:06:17;101941.25;;;7.85;63.39
64967;BME280;51710;38.732;-121.358;2023-01-24T06:08:44;101944.13;;;7.82;63.83
64967;BME280;51710;38.732;-121.358;2023-01-24T06:11:14;101959.28;;;7.80;63.92
64967;BME280;51710;38.732;-121.358;2023-01-24T06:13:41;101945.53;;;7.75;64.30
64967;BME280;51710;38.732;-121.358;2023-01-24T06:16:16;101952.94;;;7.70;63.89
64967;BME280;51710;38.732;-121.358;2023-01-24T06:18:44;101972.66;;;7.66;64.24
64967;BME280;51710;38.732;-121.358;2023-01-24T06:23:43;101989.25;;;7.44;64.23
64967;BME280;51710;38.732;-121.358;2023-01-24T06:26:10;101993.03;;;7.28;64.71
64967;BME280;51710;38.732;-121.358;2023-01-24T06:28:37;101993.88;;;7.16;65.27
64967;BME280;51710;38.732;-121.358;2023-01-24T06:31:17;101995.88;;;7.12;65.26
64967;BME280;51710;38.732;-121.358;2023-01-24T06:36:41;102000.53;;;7.09;65.82
64967;BME280;51710;38.732;-121.358;2023-01-24T06:39:14;102000.75;;;7.06;65.78
64967;BME280;51710;38.732;-121.358;2023-01-24T06:41:42;102012.38;;;7.03;66.08
64967;BME280;51710;38.732;-121.358;2023-01-24T06:44:10;102020.75;;;6.97;65.57
64967;BME280;51710;38.732;-121.358;2023-01-24T06:46:37;102018.81;;;6.87;66.09
64967;BME280;51710;38.732;-121.358;2023-01-24T06:49:03;102008.63;;;6.80;66.28
64967;BME280;51710;38.732;-121.358;2023-01-24T06:51:30;102007.88;;;6.78;66.56
64967;BME280;51710;38.732;-121.358;2023-01-24T06:53:56;102019.63;;;6.74;66.93
64967;BME280;51710;38.732;-121.358;2023-01-24T06:56:23;102014.63;;;6.70;67.28
64967;BME280;51710;38.732;-121.358;2023-01-24T06:58:49;102025.53;;;6.65;67.24
64967;BME280;51710;38.732;-121.358;2023-01-24T07:01:15;102025.72;;;6.62;67.31
64967;BME280;51710;38.732;-121.358;2023-01-24T07:03:41;102026.66;;;6.61;67.43
64967;BME280;51710;38.732;-121.358;2023-01-24T07:06:08;102030.66;;;6.54;67.67
64967;BME280;51710;38.732;-121.358;2023-01-24T07:08:34;102025.84;;;6.47;67.86
64967;BME280;51710;38.732;-121.358;2023-01-24T07:11:01;102021.81;;;6.41;68.19
64967;BME280;51710;38.732;-121.358;2023-01-24T07:13:27;102020.09;;;6.40;67.47
64967;BME280;51710;38.732;-121.358;2023-01-24T07:15:54;102030.88;;;6.37;68.37
64967;BME280;51710;38.732;-121.358;2023-01-24T07:18:21;102034.66;;;6.33;68.83
64967;BME280;51710;38.732;-121.358;2023-01-24T07:20:47;102058.03;;;6.27;68.37
64967;BME280;51710;38.732;-121.358;2023-01-24T07:23:26;102057.84;;;6.16;68.48
64967;BME280;51710;38.732;-121.358;2023-01-24T07:25:58;102068.81;;;6.10;68.88
64967;BME280;51710;38.732;-121.358;2023-01-24T07:28:25;102072.78;;;6.03;69.01
64967;BME280;51710;38.732;-121.358;2023-01-24T07:30:54;102081.38;;;5.92;69.43
64967;BME280;51710;38.732;-121.358;2023-01-24T07:33:21;102085.66;;;5.79;69.34
64967;BME280;51710;38.732;-121.358;2023-01-24T07:35:47;102095.84;;;5.71;69.60
64967;BME280;51710;38.732;-121.358;2023-01-24T07:38:14;102096.97;;;5.67;69.28
64967;BME280;51710;38.732;-121.358;2023-01-24T07:40:40;102107.53;;;5.67;70.04
64967;BME280;51710;38.732;-121.358;2023-01-24T07:43:07;102102.44;;;5.64;69.67
64967;BME280;51710;38.732;-121.358;2023-01-24T07:45:34;102110.38;;;5.64;69.92
64967;BME280;51710;38.732;-121.358;2023-01-24T07:48:05;102116.63;;;5.63;69.91
64967;BME280;51710;38.732;-121.358;2023-01-24T07:50:36;102109.50;;;5.63;69.93
64967;BME280;51710;38.732;-121.358;2023-01-24T07:53:03;102120.94;;;5.64;70.33
64967;BME280;51710;38.732;-121.358;2023-01-24T07:55:29;102113.97;;;5.63;70.04
64967;BME280;51710;38.732;-121.358;2023-01-24T07:58:00;102121.03;;;5.62;70.42
64967;BME280;51710;38.732;-121.358;2023-01-24T08:00:27;102124.53;;;5.63;70.44
64967;BME280;51710;38.732;-121.358;2023-01-24T08:02:53;102114.13;;;5.60;70.67
64967;BME280;51710;38.732;-121.358;2023-01-24T08:05:20;102112.44;;;5.59;71.03
64967;BME280;51710;38.732;-121.358;2023-01-24T08:07:47;102109.63;;;5.62;71.01
64967;BME280;51710;38.732;-121.358;2023-01-24T08:10:14;102111.34;;;5.63;70.80
64967;BME280;51710;38.732;-121.358;2023-01-24T08:12:41;102109.34;;;5.66;71.56
64967;BME280;51710;38.732;-121.358;2023-01-24T08:15:07;102106.78;;;5.65;71.03
64967;BME280;51710;38.732;-121.358;2023-01-24T08:17:37;102103.66;;;5.58;71.45
64967;BME280;51710;38.732;-121.358;2023-01-24T08:20:05;102100.25;;;5.56;72.03
64967;BME280;51710;38.732;-121.358;2023-01-24T08:22:33;102109.56;;;5.48;71.77
64967;BME280;51710;38.732;-121.358;2023-01-24T08:24:59;102103.06;;;5.39;72.23
64967;BME280;51710;38.732;-121.358;2023-01-24T08:27:26;102101.38;;;5.38;71.62
64967;BME280;51710;38.732;-121.358;2023-01-24T08:29:52;102093.16;;;5.43;72.12
64967;BME280;51710;38.732;-121.358;2023-01-24T08:32:18;102091.09;;;5.48;72.29
64967;BME280;51710;38.732;-121.358;2023-01-24T08:34:45;102096.03;;;5.54;72.42
64967;BME280;51710;38.732;-121.358;2023-01-24T08:37:11;102089.59;;;5.58;72.54
64967;BME280;51710;38.732;-121.358;2023-01-24T08:39:38;102099.13;;;5.60;72.70
64967;BME280;51710;38.732;-121.358;2023-01-24T08:42:04;102100.91;;;5.60;72.05
64967;BME280;51710;38.732;-121.358;2023-01-24T08:44:30;102105.38;;;5.59;72.27
64967;BME280;51710;38.732;-121.358;2023-01-24T08:46:57;102094.81;;;5.59;72.86
64967;BME280;51710;38.732;-121.358;2023-01-24T08:49:23;102099.59;;;5.53;72.41
64967;BME280;51710;38.732;-121.358;2023-01-24T08:51:50;102102.81;;;5.44;72.47
64967;BME280;51710;38.732;-121.358;2023-01-24T08:54:27;102102.19;;;5.39;72.58
64967;BME280;51710;38.732;-121.358;2023-01-24T08:56:55;102097.84;;;5.38;72.91
64967;BME280;51710;38.732;-121.358;2023-01-24T08:59:21;102103.34;;;5.35;72.67
64967;BME280;51710;38.732;-121.358;2023-01-24T09:01:48;102097.63;;;5.27;72.86
64967;BME280;51710;38.732;-121.358;2023-01-24T09:04:14;102106.69;;;5.23;72.93
64967;BME280;51710;38.732;-121.358;2023-01-24T09:06:41;102110.44;;;5.19;73.16
64967;BME280;51710;38.732;-121.358;2023-01-24T09:09:07;102113.69;;;5.08;73.00
64967;BME280;51710;38.732;-121.358;2023-01-24T09:11:33;102109.78;;;5.00;72.96
64967;BME280;51710;38.732;-121.358;2023-01-24T09:14:00;102117.13;;;4.95;73.54
64967;BME280;51710;38.732;-121.358;2023-01-24T09:16:26;102115.41;;;4.94;73.53
64967;BME280;51710;38.732;-121.358;2023-01-24T09:18:54;102118.81;;;4.96;73.91
64967;BME280;51710;38.732;-121.358;2023-01-24T09:21:21;102123.91;;;4.99;73.65
64967;BME280;51710;38.732;-121.358;2023-01-24T09:23:47;102130.22;;;4.96;73.89
64967;BME280;51710;38.732;-121.358;2023-01-24T09:26:13;102129.75;;;4.90;73.44
64967;BME280;51710;38.732;-121.358;2023-01-24T09:28:40;102134.25;;;4.88;73.98
64967;BME280;51710;38.732;-121.358;2023-01-24T09:31:09;102135.84;;;4.90;74.26
64967;BME280;51710;38.732;-121.358;2023-01-24T09:33:37;102137.38;;;4.94;74.32
64967;BME280;51710;38.732;-121.358;2023-01-24T09:36:03;102144.34;;;4.95;74.27
64967;BME280;51710;38.732;-121.358;2023-01-24T09:38:32;102144.19;;;4.98;74.29
64967;BME280;51710;38.732;-121.358;2023-01-24T09:41:58;102148.94;;;4.92;74.24
64967;BME280;51710;38.732;-121.358;2023-01-24T09:44:15;102152.22;;;4.81;74.33
64967;BME280;51710;38.732;-121.358;2023-01-24T09:46:50;102154.91;;;4.80;75.17
64967;BME280;51710;38.732;-121.358;2023-01-24T09:49:39;102157.31;;;4.84;74.72
64967;BME280;51710;38.732;-121.358;2023-01-24T09:52:12;102170.25;;;4.89;75.11
64967;BME280;51710;38.732;-121.358;2023-01-24T09:54:59;102176.03;;;4.95;75.03
64967;BME280;51710;38.732;-121.358;2023-01-24T09:57:42;102171.78;;;4.93;74.70
64967;BME280;51710;38.732;-121.358;2023-01-24T10:00:35;102177.06;;;4.77;74.59
64967;BME280;51710;38.732;-121.358;2023-01-24T10:03:03;102176.38;;;4.74;74.88
64967;BME280;51710;38.732;-121.358;2023-01-24T10:05:38;102173.97;;;4.69;75.12
64967;BME280;51710;38.732;-121.358;2023-01-24T10:10:49;102188.50;;;4.60;75.25
64967;BME280;51710;38.732;-121.358;2023-01-24T10:19:36;102203.03;;;4.36;74.38
64967;BME280;51710;38.732;-121.358;2023-01-24T10:24:35;102208.38;;;4.35;75.25
64967;BME280;51710;38.732;-121.358;2023-01-24T10:27:25;102206.44;;;4.38;75.41
64967;BME280;51710;38.732;-121.358;2023-01-24T10:30:16;102211.53;;;4.41;75.43
64967;BME280;51710;38.732;-121.358;2023-01-24T10:32:46;102209.84;;;4.40;75.25
64967;BME280;51710;38.732;-121.358;2023-01-24T10:35:26;102208.47;;;4.33;75.13
64967;BME280;51710;38.732;-121.358;2023-01-24T10:37:58;102216.84;;;4.24;75.05
64967;BME280;51710;38.732;-121.358;2023-01-24T10:40:26;102220.66;;;4.19;75.48
64967;BME280;51710;38.732;-121.358;2023-01-24T10:42:53;102215.28;;;4.20;75.71
64967;BME280;51710;38.732;-121.358;2023-01-24T10:45:46;102215.59;;;4.31;76.56
64967;BME280;51710;38.732;-121.358;2023-01-24T10:48:46;102211.53;;;4.41;76.02
64967;BME280;51710;38.732;-121.358;2023-01-24T10:51:18;102217.34;;;4.48;75.69
64967;BME280;51710;38.732;-121.358;2023-01-24T10:53:45;102206.38;;;4.55;76.13
64967;BME280;51710;38.732;-121.358;2023-01-24T10:56:14;102205.97;;;4.63;75.77
64967;BME280;51710;38.732;-121.358;2023-01-24T10:59:04;102201.22;;;4.70;76.34
64967;BME280;51710;38.732;-121.358;2023-01-24T11:04:27;102196.63;;;4.89;76.16
64967;BME280;51710;38.732;-121.358;2023-01-24T11:06:55;102201.41;;;4.98;76.04
64967;BME280;51710;38.732;-121.358;2023-01-24T11:09:32;102194.06;;;5.03;75.69
64967;BME280;51710;38.732;-121.358;2023-01-24T11:12:00;102194.75;;;5.06;75.53
64967;BME280;51710;38.732;-121.358;2023-01-24T11:14:34;102197.41;;;5.06;75.87
64967;BME280;51710;38.732;-121.358;2023-01-24T11:17:01;102192.03;;;5.08;75.65
64967;BME280;51710;38.732;-121.358;2023-01-24T11:21:57;102187.59;;;5.08;75.44
64967;BME280;51710;38.732;-121.358;2023-01-24T11:24:24;102190.16;;;5.10;75.30
64967;BME280;51710;38.732;-121.358;2023-01-24T11:27:18;102201.50;;;5.12;75.69
64967;BME280;51710;38.732;-121.358;2023-01-24T11:30:23;102199.72;;;5.12;75.88
64967;BME280;51710;38.732;-121.358;2023-01-24T11:36:01;102215.00;;;5.06;75.41
64967;BME280;51710;38.732;-121.358;2023-01-24T11:46:31;102205.31;;;4.91;75.75
64967;BME280;51710;38.732;-121.358;2023-01-24T11:49:12;102203.63;;;4.90;75.74
64967;BME280;51710;38.732;-121.358;2023-01-24T11:51:57;102213.06;;;4.94;75.68
64967;BME280;51710;38.732;-121.358;2023-01-24T11:57:38;102212.38;;;5.06;75.82
64967;BME280;51710;38.732;-121.358;2023-01-24T12:03:16;102214.78;;;5.10;75.61
64967;BME280;51710;38.732;-121.358;2023-01-24T12:06:03;102222.78;;;5.09;75.46
64967;BME280;51710;38.732;-121.358;2023-01-24T12:12:30;102223.09;;;4.72;74.96
64967;BME280;51710;38.732;-121.358;2023-01-24T12:15:11;102239.88;;;4.53;75.30
64967;BME280;51710;38.732;-121.358;2023-01-24T12:17:53;102243.88;;;4.45;75.48
64967;BME280;51710;38.732;-121.358;2023-01-24T12:22:55;102238.53;;;4.29;75.61
64967;BME280;51710;38.732;-121.358;2023-01-24T12:25:34;102243.28;;;4.23;75.63
64967;BME280;51710;38.732;-121.358;2023-01-24T12:28:05;102237.16;;;4.22;76.42
64967;BME280;51710;38.732;-121.358;2023-01-24T12:30:43;102241.59;;;4.22;76.15
64967;BME280;51710;38.732;-121.358;2023-01-24T12:33:17;102240.56;;;4.24;76.50
64967;BME280;51710;38.732;-121.358;2023-01-24T12:35:54;102243.81;;;4.29;76.68
64967;BME280;51710;38.732;-121.358;2023-01-24T12:38:44;102241.97;;;4.31;76.69
64967;BME280;51710;38.732;-121.358;2023-01-24T12:44:29;102250.03;;;4.28;76.30
64967;BME280;51710;38.732;-121.358;2023-01-24T12:49:43;102256.09;;;4.30;76.74
64967;BME280;51710;38.732;-121.358;2023-01-24T13:09:49;102264.84;;;3.44;76.71
64967;BME280;51710;38.732;-121.358;2023-01-24T13:12:26;102274.59;;;3.42;76.83
64967;BME280;51710;38.732;-121.358;2023-01-24T13:14:56;102280.09;;;3.37;76.43
64967;BME280;51710;38.732;-121.358;2023-01-24T13:28:12;102284.00;;;3.47;77.38
64967;BME280;51710;38.732;-121.358;2023-01-24T13:31:50;102288.66;;;3.60;78.15
64967;BME280;51710;38.732;-121.358;2023-01-24T13:34:21;102291.19;;;3.63;77.10
64967;BME280;51710;38.732;-121.358;2023-01-24T13:36:51;102299.91;;;3.63;77.87
64967;BME280;51710;38.732;-121.358;2023-01-24T13:39:37;102307.03;;;3.61;77.34
64967;BME280;51710;38.732;-121.358;2023-01-24T13:42:22;102314.59;;;3.50;76.99
64967;BME280;51710;38.732;-121.358;2023-01-24T13:44:50;102314.41;;;3.36;77.23
64967;BME280;51710;38.732;-121.358;2023-01-24T13:50:15;102334.03;;;3.29;77.81
64967;BME280;51710;38.732;-121.358;2023-01-24T13:52:45;102328.34;;;3.38;78.49
64967;BME280;51710;38.732;-121.358;2023-01-24T14:00:52;102342.31;;;3.76;78.14
64967;BME280;51710;38.732;-121.358;2023-01-24T14:03:32;102351.56;;;3.84;78.26
64967;BME280;51710;38.732;-121.358;2023-01-24T14:24:42;102371.31;;;4.11;77.35
64967;BME280;51710;38.732;-121.358;2023-01-24T14:29:57;102380.75;;;4.15;77.63
64967;BME280;51710;38.732;-121.358;2023-01-24T14:32:32;102372.72;;;4.18;77.55
64967;BME280;51710;38.732;-121.358;2023-01-24T14:37:34;102375.19;;;4.21;77.13
64967;BME280;51710;38.732;-121.358;2023-01-24T14:42:51;102382.94;;;4.24;77.30
64967;BME280;51710;38.732;-121.358;2023-01-24T14:45:27;102376.72;;;4.25;77.24
64967;BME280;51710;38.732;-121.358;2023-01-24T14:47:54;102381.84;;;4.28;77.51
64967;BME280;51710;38.732;-121.358;2023-01-24T14:50:25;102388.81;;;4.29;77.23